Time;durP1;ratioP1;P1;durP2;ratioP2;P2;SDS_P1;SDS_P2;PMS_P1;PMS_P2;Temp;Humidity;BMP_temperature;BMP_pressure;BME280_temperature;BME280_humidity;BME280_pressure;Samples;Min_cycle;Max_cycle;Signal;HPM_P1;HPM_P2
2022/09/05 00:00:10;;;;;;;4.78;1.95;;;21.40;99.90;;;;;;5052890;28;20072;-76
2022/09/05 00:02:54;;;;;;;6.05;2.95;;;21.10;99.90;;;;;;5052964;28;20025;-76
2022/09/05 00:05:41;;;;;;;11.65;3.47;;;20.90;99.90;;;;;;5052579;28;20384;-76
2022/09/05 00:08:13;;;;;;;4.72;2.88;;;20.90;99.90;;;;;;5052708;28;20065;-77
2022/09/05 00:11:00;;;;;;;8.30;2.58;;;21.10;99.90;;;;;;5053003;28;20044;-77
2022/09/05 00:13:31;;;;;;;3.92;2.00;;;21.20;99.90;;;;;;5051161;28;20029;-77
2022/09/05 00:16:19;;;;;;;7.65;2.67;;;20.50;99.90;;;;;;5052661;28;20025;-77
2022/09/05 00:19:22;;;;;;;7.63;2.35;;;20.70;99.90;;;;;;5051123;28;20033;-76
2022/09/05 00:22:02;;;;;;;7.22;2.78;;;20.60;99.90;;;;;;5052545;28;20075;-77
2022/09/05 00:25:07;;;;;;;5.65;2.40;;;20.40;99.90;;;;;;5052489;28;20039;-77
2022/09/05 00:27:57;;;;;;;5.00;2.42;;;20.60;99.90;;;;;;5052306;28;20029;-77
2022/09/05 00:30:23;;;;;;;9.10;2.90;;;20.40;99.90;;;;;;5052494;28;20035;-77
2022/09/05 00:33:14;;;;;;;8.68;2.35;;;20.60;99.90;;;;;;5067645;28;20116;-77
2022/09/05 00:36:12;;;;;;;6.88;2.50;;;20.80;99.90;;;;;;5052631;28;20028;-77
2022/09/05 00:38:41;;;;;;;5.90;2.40;;;20.80;99.90;;;;;;5052364;28;20037;-77
2022/09/05 00:41:12;;;;;;;6.53;2.40;;;20.90;99.90;;;;;;5052775;28;20029;-77
2022/09/05 00:43:42;;;;;;;9.20;2.60;;;20.80;99.90;;;;;;5052475;28;20029;-77
2022/09/05 00:46:14;;;;;;;8.48;2.40;;;21.00;99.90;;;;;;5067775;28;20068;-77
2022/09/05 00:49:04;;;;;;;14.73;2.63;;;21.00;99.90;;;;;;5067535;28;20798;-77
2022/09/05 00:52:03;;;;;;;7.10;2.63;;;21.00;99.90;;;;;;5050994;28;20033;-77
2022/09/05 00:54:55;;;;;;;7.38;2.30;;;20.70;99.90;;;;;;5052233;28;20358;-77
2022/09/05 00:57:29;;;;;;;;;;;20.70;99.90;;;;;;5052759;28;20045;-76
2022/09/05 01:00:00;;;;;;;8.07;2.63;;;20.60;99.90;;;;;;5050949;28;19925;-77
2022/09/05 01:02:44;;;;;;;9.30;2.58;;;20.60;99.90;;;;;;5051783;28;20462;-77
2022/09/05 01:05:31;;;;;;;11.27;2.50;;;20.70;99.90;;;;;;5052220;28;20051;-77
2022/09/05 01:08:22;;;;;;;4.93;2.50;;;20.90;99.90;;;;;;5067776;28;20389;-77
2022/09/05 01:11:07;;;;;;;5.95;2.60;;;20.90;99.90;;;;;;5050920;28;20033;-77
2022/09/05 01:13:49;;;;;;;5.22;2.88;;;20.70;99.90;;;;;;5052101;28;20029;-76
2022/09/05 01:16:42;;;;;;;6.10;2.60;;;20.50;99.90;;;;;;5051898;28;20080;-77
2022/09/05 01:19:37;;;;;;;7.20;2.63;;;20.40;99.90;;;;;;5039305;28;20076;-77
2022/09/05 01:22:24;;;;;;;8.50;2.50;;;20.30;99.90;;;;;;5050674;28;20056;-77
2022/09/05 01:25:02;;;;;;;5.28;2.47;;;20.30;99.90;;;;;;5052136;28;20056;-77
2022/09/05 01:27:31;;;;;;;7.05;2.20;;;20.00;99.90;;;;;;5051964;28;20047;-77
2022/09/05 01:30:06;;;;;;;5.43;2.10;;;19.80;99.90;;;;;;5052256;28;20366;-77
2022/09/05 01:32:55;;;;;;;8.10;2.78;;;19.90;99.90;;;;;;5051672;28;20044;-77
2022/09/05 01:35:27;;;;;;;5.40;2.53;;;20.10;99.90;;;;;;5059574;28;20115;-77
2022/09/05 01:38:13;;;;;;;;;;;20.30;99.90;;;;;;5054842;28;20047;-77
2022/09/05 01:41:10;;;;;;;7.40;2.47;;;20.30;99.90;;;;;;5052546;28;19940;-77
2022/09/05 01:44:18;;;;;;;7.85;2.60;;;20.10;99.90;;;;;;5024966;28;20047;-77
2022/09/05 01:47:13;;;;;;;7.35;2.13;;;20.20;99.90;;;;;;5041706;28;20029;-76
2022/09/05 01:49:51;;;;;;;6.00;2.63;;;20.10;99.90;;;;;;5040881;28;20044;-77
2022/09/05 01:52:38;;;;;;;4.78;2.28;;;20.20;99.90;;;;;;5070815;28;20052;-77
2022/09/05 01:55:22;;;;;;;8.32;2.80;;;20.30;99.90;;;;;;5055127;28;20028;-77
2022/09/05 01:58:08;;;;;;;6.20;2.22;;;20.20;99.90;;;;;;5055197;28;20120;-77
2022/09/05 02:00:54;;;;;;;12.23;3.15;;;20.30;99.90;;;;;;5058791;28;20067;-77
2022/09/05 02:03:38;;;;;;;5.50;2.70;;;20.30;99.90;;;;;;5053045;28;20043;-77
2022/09/05 02:06:25;;;;;;;7.32;2.80;;;20.40;99.90;;;;;;5054901;28;20037;-77
2022/09/05 02:09:28;;;;;;;9.48;2.60;;;20.50;99.90;;;;;;5054849;28;20021;-77
2022/09/05 02:12:02;;;;;;;6.15;2.50;;;20.50;99.90;;;;;;5053813;28;20535;-77
2022/09/05 02:14:43;;;;;;;7.10;2.85;;;20.40;99.90;;;;;;5054325;28;20064;-77
2022/09/05 02:17:15;;;;;;;5.05;2.63;;;20.30;99.90;;;;;;5055032;28;20027;-77
2022/09/05 02:19:53;;;;;;;4.82;2.33;;;20.10;99.90;;;;;;5054588;28;20048;-77
2022/09/05 02:22:27;;;;;;;4.10;2.50;;;20.10;99.90;;;;;;5053725;28;20039;-77
2022/09/05 02:25:07;;;;;;;6.82;3.05;;;20.10;99.90;;;;;;5053272;28;20044;-77
2022/09/05 02:27:46;;;;;;;5.07;2.22;;;19.90;99.90;;;;;;5070022;28;20044;-76
2022/09/05 02:30:25;;;;;;;4.10;2.28;;;20.00;99.90;;;;;;5036445;28;20041;-77
2022/09/05 02:33:07;;;;;;;3.72;2.42;;;19.70;99.90;;;;;;5053452;28;20291;-77
2022/09/05 02:35:39;;;;;;;5.53;2.70;;;19.70;99.90;;;;;;5042550;28;20056;-76
2022/09/05 02:38:31;;;;;;;6.57;2.60;;;19.90;99.90;;;;;;5054219;28;20109;-77
2022/09/05 02:41:31;;;;;;;4.90;2.00;;;19.80;99.90;;;;;;5054638;28;20445;-77
2022/09/05 02:44:04;;;;;;;5.38;2.28;;;19.90;99.90;;;;;;5018629;28;20040;-77
2022/09/05 02:46:43;;;;;;;7.00;2.80;;;20.00;99.90;;;;;;5054105;28;20138;-76
2022/09/05 02:49:21;;;;;;;5.15;2.78;;;19.80;99.90;;;;;;5036454;28;20421;-77
2022/09/05 02:52:07;;;;;;;5.90;2.20;;;19.90;99.90;;;;;;5054097;28;20024;-77
2022/09/05 02:54:36;;;;;;;6.70;2.67;;;19.90;99.90;;;;;;5052659;28;20502;-76
2022/09/05 02:57:27;;;;;;;8.50;2.13;;;19.90;99.90;;;;;;5053927;28;20028;-77
2022/09/05 02:59:59;;;;;;;6.03;2.22;;;19.90;99.90;;;;;;5053806;28;20052;-77
2022/09/05 03:02:42;;;;;;;9.40;2.35;;;19.90;99.90;;;;;;5052870;28;20028;-77
2022/09/05 03:05:19;;;;;;;9.23;2.60;;;20.00;99.90;;;;;;5054020;28;20501;-77
2022/09/05 03:08:03;;;;;;;6.35;2.45;;;20.00;99.90;;;;;;5052724;28;20021;-77
2022/09/05 03:10:29;;;;;;;5.13;2.15;;;19.90;99.90;;;;;;5053521;28;20021;-76
2022/09/05 03:13:10;;;;;;;2.83;1.90;;;19.80;99.90;;;;;;5053701;28;20024;-77
2022/09/05 03:16:09;;;;;;;4.38;2.28;;;19.80;99.90;;;;;;5052362;28;20025;-76
2022/09/05 03:19:06;;;;;;;9.75;2.72;;;19.60;99.90;;;;;;5035764;28;20119;-76
2022/09/05 03:22:12;;;;;;;6.47;2.67;;;19.60;99.90;;;;;;5056166;28;20048;-77
2022/09/05 03:24:53;;;;;;;6.05;2.35;;;19.60;99.90;;;;;;5053563;28;20033;-76
2022/09/05 03:27:50;;;;;;;5.55;2.50;;;19.70;99.90;;;;;;5068527;28;20036;-77
2022/09/05 03:30:20;;;;;;;8.63;2.45;;;19.60;99.90;;;;;;5057679;28;20028;-76
2022/09/05 03:33:28;;;;;;;6.03;2.42;;;19.50;99.90;;;;;;5035426;28;20021;-76
2022/09/05 03:36:31;;;;;;;7.20;2.45;;;19.40;99.90;;;;;;5053087;28;20029;-77
2022/09/05 03:39:06;;;;;;;13.23;2.88;;;19.40;99.90;;;;;;5042373;28;20132;-77
2022/09/05 03:41:44;;;;;;;7.40;2.60;;;19.40;99.90;;;;;;5068206;28;20029;-77
2022/09/05 03:44:31;;;;;;;7.65;2.70;;;19.50;99.90;;;;;;5068589;28;20424;-77
2022/09/05 03:47:18;;;;;;;3.90;2.38;;;19.40;99.90;;;;;;5054943;28;20044;-78
2022/09/05 03:50:02;;;;;;;5.93;2.28;;;19.60;99.90;;;;;;5053024;28;20384;-78
2022/09/05 03:52:37;;;;;;;6.90;2.15;;;19.40;99.90;;;;;;5053096;28;20539;-78
2022/09/05 03:55:26;;;;;;;6.55;2.30;;;19.30;99.90;;;;;;5052859;28;20029;-77
2022/09/05 03:58:13;;;;;;;5.75;2.20;;;19.30;99.90;;;;;;5052618;28;20041;-78
2022/09/05 04:00:45;;;;;;;4.45;2.10;;;19.40;99.90;;;;;;5055409;28;20041;-77
2022/09/05 04:03:16;;;;;;;8.13;3.38;;;19.30;99.90;;;;;;5068463;28;20033;-77
2022/09/05 04:05:49;;;;;;;5.78;2.08;;;19.40;99.90;;;;;;5039331;28;20021;-77
2022/09/05 04:08:21;;;;;;;9.18;2.47;;;19.50;99.90;;;;;;5051625;28;20607;-78
2022/09/05 04:10:50;;;;;;;5.18;2.72;;;19.40;99.90;;;;;;5039232;28;20021;-77
2022/09/05 04:13:15;;;;;;;9.45;2.35;;;19.50;99.90;;;;;;5052553;28;20027;-77
2022/09/05 04:15:49;;;;;;;9.25;2.67;;;19.40;99.90;;;;;;5052569;28;20377;-77
2022/09/05 04:18:17;;;;;;;6.65;2.58;;;19.20;99.90;;;;;;5052717;28;20481;-77
2022/09/05 04:20:52;;;;;;;6.75;2.25;;;19.30;99.90;;;;;;5052564;28;20389;-77
2022/09/05 04:23:27;;;;;;;10.23;2.63;;;19.40;99.90;;;;;;5051331;28;20033;-78
2022/09/05 04:26:01;;;;;;;6.45;3.03;;;19.40;99.90;;;;;;5067609;28;20477;-77
2022/09/05 04:29:07;;;;;;;8.10;2.40;;;19.20;99.90;;;;;;5051408;28;20039;-77
2022/09/05 04:31:51;;;;;;;4.75;2.70;;;19.20;99.90;;;;;;5051058;28;20029;-77
2022/09/05 04:34:45;;;;;;;8.20;2.78;;;19.30;99.90;;;;;;5067818;28;20052;-77
2022/09/05 04:37:34;;;;;;;5.50;2.20;;;19.40;99.90;;;;;;5052594;28;20033;-77
2022/09/05 04:40:34;;;;;;;8.02;2.88;;;19.30;99.90;;;;;;5051993;28;20037;-77
2022/09/05 04:43:30;;;;;;;6.88;3.22;;;19.40;99.90;;;;;;5034555;28;20043;-77
2022/09/05 04:46:05;;;;;;;4.80;2.60;;;19.30;99.90;;;;;;5049429;28;20037;-77
2022/09/05 04:48:44;;;;;;;7.43;2.80;;;19.40;99.90;;;;;;5067571;28;20039;-77
2022/09/05 04:51:32;;;;;;;7.20;2.60;;;19.30;99.90;;;;;;5052583;28;20031;-77
2022/09/05 04:54:17;;;;;;;7.70;2.83;;;19.30;99.90;;;;;;5055549;28;20033;-77
2022/09/05 04:56:47;;;;;;;7.97;2.95;;;19.30;99.90;;;;;;5050672;28;20033;-77
2022/09/05 04:59:41;;;;;;;5.00;2.80;;;19.40;99.90;;;;;;5052006;28;20064;-77
2022/09/05 05:02:22;;;;;;;39.78;5.00;;;19.30;99.90;;;;;;5052230;28;20417;-78
2022/09/05 05:04:49;;;;;;;11.02;2.95;;;19.20;99.90;;;;;;5051253;28;20037;-78
2022/09/05 05:07:43;;;;;;;8.68;2.75;;;19.00;99.90;;;;;;5051914;28;20071;-77
2022/09/05 05:10:21;;;;;;;14.07;3.10;;;19.10;99.90;;;;;;5048701;28;20047;-77
2022/09/05 05:13:13;;;;;;;9.63;2.55;;;19.20;99.90;;;;;;5052157;28;20052;-77
2022/09/05 05:16:00;;;;;;;7.35;2.83;;;19.40;99.90;;;;;;5051808;28;20377;-77
2022/09/05 05:18:39;;;;;;;10.85;2.88;;;19.40;99.90;;;;;;5055907;28;20083;-77
2022/09/05 05:21:14;;;;;;;7.25;2.72;;;19.30;99.90;;;;;;5055977;28;20040;-77
2022/09/05 05:23:45;;;;;;;4.35;2.55;;;19.60;99.90;;;;;;5070984;28;20473;-77
2022/09/05 05:26:21;;;;;;;9.47;2.73;;;19.50;99.90;;;;;;5055678;28;20064;-77
2022/09/05 05:28:56;;;;;;;9.68;3.63;;;19.50;99.90;;;;;;5054416;28;20472;-78
2022/09/05 05:31:32;;;;;;;11.50;3.22;;;19.40;99.90;;;;;;5055725;28;20025;-77
2022/09/05 05:34:02;;;;;;;8.32;2.63;;;19.40;99.90;;;;;;5055531;28;20029;-76
2022/09/05 05:36:44;;;;;;;8.45;2.63;;;19.70;99.90;;;;;;5055587;28;20058;-76
2022/09/05 05:39:20;;;;;;;18.63;2.58;;;19.90;99.90;;;;;;5055316;28;20041;-76
2022/09/05 05:42:12;;;;;;;15.48;2.47;;;20.00;99.90;;;;;;5055372;28;20032;-76
2022/09/05 05:44:38;;;;;;;10.70;2.67;;;20.10;99.90;;;;;;5055236;28;20450;-76
2022/09/05 05:47:43;;;;;;;7.95;2.53;;;20.10;99.90;;;;;;5052921;28;20025;-77
2022/09/05 05:50:29;;;;;;;14.00;2.92;;;20.10;99.90;;;;;;5047583;28;20083;-77
2022/09/05 05:53:18;;;;;;;10.40;2.92;;;20.30;99.90;;;;;;5053527;28;20013;-74
2022/09/05 05:55:58;;;;;;;10.32;2.75;;;20.40;99.90;;;;;;5054285;28;20079;-75
2022/09/05 05:58:49;;;;;;;19.27;3.10;;;20.50;99.90;;;;;;5052505;28;20025;-74
2022/09/05 06:01:36;;;;;;;15.30;2.83;;;20.60;99.90;;;;;;5052515;28;20048;-74
2022/09/05 06:04:20;;;;;;;8.43;2.30;;;20.50;99.90;;;;;;5053053;28;20033;-74
2022/09/05 06:07:08;;;;;;;10.65;3.05;;;20.60;99.90;;;;;;5049376;28;20094;-74
2022/09/05 06:10:15;;;;;;;5.82;2.65;;;20.60;99.90;;;;;;5069915;28;20033;-75
2022/09/05 06:12:50;;;;;;;12.30;2.45;;;20.70;99.90;;;;;;5052114;28;20025;-74
2022/09/05 06:15:23;;;;;;;15.75;2.67;;;21.00;99.90;;;;;;5054059;28;20065;-75
2022/09/05 06:18:07;;;;;;;10.57;2.80;;;21.20;99.90;;;;;;5053938;28;20024;-74
2022/09/05 06:20:52;;;;;;;6.60;2.65;;;21.10;99.90;;;;;;5053601;28;20065;-74
2022/09/05 06:23:20;;;;;;;6.95;2.30;;;21.30;99.90;;;;;;5043311;28;20499;-73
2022/09/05 06:25:52;;;;;;;8.52;3.13;;;21.60;99.90;;;;;;5053599;28;20083;-73
2022/09/05 06:28:24;;;;;;;5.00;2.15;;;21.60;99.90;;;;;;5053316;28;20404;-73
2022/09/05 06:31:11;;;;;;;4.25;2.10;;;21.30;99.90;;;;;;5053837;28;20029;-74
2022/09/05 06:33:55;;;;;;;5.55;2.33;;;21.10;99.90;;;;;;5045770;28;20025;-74
2022/09/05 06:36:36;;;;;;;6.82;2.38;;;21.30;99.90;;;;;;5053544;28;20044;-74
2022/09/05 06:39:10;;;;;;;14.38;2.60;;;21.40;99.90;;;;;;5069139;28;20052;-74
2022/09/05 06:41:40;;;;;;;14.00;2.78;;;21.40;99.90;;;;;;5053759;28;20017;-74
2022/09/05 06:44:35;;;;;;;4.10;2.10;;;21.40;99.90;;;;;;5051623;28;20087;-75
2022/09/05 06:47:13;;;;;;;13.68;2.55;;;21.20;99.90;;;;;;5040754;28;20036;-74
2022/09/05 06:49:50;;;;;;;6.93;2.53;;;21.40;99.90;;;;;;5053750;28;20037;-74
2022/09/05 06:52:37;;;;;;;5.38;2.38;;;21.40;99.90;;;;;;5069318;28;20037;-74
2022/09/05 06:55:15;;;;;;;5.82;2.33;;;21.30;99.90;;;;;;5052960;28;20104;-74
2022/09/05 06:57:43;;;;;;;11.02;2.53;;;21.30;99.90;;;;;;5043391;28;20060;-74
2022/09/05 07:00:39;;;;;;;12.27;2.45;;;21.30;99.90;;;;;;5050096;28;20051;-75
2022/09/05 07:03:36;;;;;;;13.52;2.53;;;21.30;99.90;;;;;;5042341;28;20490;-74
2022/09/05 07:06:26;;;;;;;8.13;2.65;;;21.60;99.90;;;;;;5042292;28;20028;-74
2022/09/05 07:09:14;;;;;;;18.50;3.78;;;21.50;99.90;;;;;;5052882;28;20025;-74
2022/09/05 07:12:13;;;;;;;21.48;3.10;;;21.60;99.90;;;;;;5052136;28;20082;-74
2022/09/05 07:15:02;;;;;;;25.50;3.42;;;21.20;99.90;;;;;;5042625;28;20050;-75
2022/09/05 07:17:56;;;;;;;17.25;3.20;;;21.40;99.90;;;;;;5052991;28;20099;-74
2022/09/05 07:20:34;;;;;;;20.73;3.15;;;21.60;99.90;;;;;;5044242;28;20500;-74
2022/09/05 07:23:12;;;;;;;15.48;3.33;;;21.50;99.90;;;;;;5052649;28;20032;-75
2022/09/05 07:25:40;;;;;;;11.18;2.60;;;21.60;99.90;;;;;;5052636;28;20036;-74
2022/09/05 07:28:11;;;;;;;14.65;3.42;;;21.60;99.90;;;;;;5034541;28;20456;-74
2022/09/05 07:30:39;;;;;;;7.65;2.90;;;21.70;99.90;;;;;;5052650;28;20090;-73
2022/09/05 07:33:06;;;;;;;6.78;2.53;;;21.90;99.90;;;;;;5051727;28;20017;-74
2022/09/05 07:35:38;;;;;;;6.57;2.88;;;21.80;99.90;;;;;;5052481;28;20036;-76
2022/09/05 07:38:14;;;;;;;7.45;2.28;;;21.70;99.90;;;;;;5051692;28;20028;-74
2022/09/05 07:40:53;;;;;;;7.32;2.53;;;21.70;99.90;;;;;;5051373;28;20477;-74
2022/09/05 07:43:32;;;;;;;13.13;3.20;;;22.00;99.90;;;;;;5050973;28;20111;-74
2022/09/05 07:46:04;;;;;;;6.68;2.53;;;22.20;99.90;;;;;;5044648;28;20489;-74
2022/09/05 07:48:34;;;;;;;18.75;2.85;;;22.20;99.90;;;;;;5052155;28;20028;-74
2022/09/05 07:51:04;;;;;;;13.30;2.70;;;22.50;99.90;;;;;;5052341;28;20033;-74
2022/09/05 07:53:30;;;;;;;10.55;2.50;;;22.70;99.90;;;;;;5052252;28;20029;-74
2022/09/05 07:55:59;;;;;;;6.00;2.85;;;22.60;99.90;;;;;;5051765;28;20068;-74
2022/09/05 07:58:40;;;;;;;10.27;2.50;;;22.90;99.90;;;;;;5042176;28;20029;-74
2022/09/05 08:01:11;;;;;;;15.00;3.00;;;22.90;99.90;;;;;;5051861;28;20072;-74
2022/09/05 08:03:37;;;;;;;12.77;2.47;;;23.10;99.60;;;;;;5051641;28;20420;-75
2022/09/05 08:06:08;;;;;;;7.10;2.88;;;23.10;99.90;;;;;;5050916;28;20101;-74
2022/09/05 08:08:52;;;;;;;17.23;2.80;;;23.00;99.90;;;;;;5049088;28;20040;-74
2022/09/05 08:11:21;;;;;;;11.63;2.47;;;22.90;99.90;;;;;;5042960;28;20021;-74
2022/09/05 08:14:09;;;;;;;12.50;2.60;;;22.90;99.90;;;;;;5052933;28;20036;-74
2022/09/05 08:16:37;;;;;;;5.30;2.20;;;22.80;99.90;;;;;;5066618;28;20124;-74
2022/09/05 08:19:25;;;;;;;13.32;2.72;;;22.80;99.90;;;;;;5052257;28;20540;-74
2022/09/05 08:21:53;;;;;;;10.95;3.15;;;23.20;99.90;;;;;;5052443;28;20029;-74
2022/09/05 08:24:48;;;;;;;17.15;2.90;;;23.50;99.90;;;;;;5051206;28;20037;-74
2022/09/05 08:27:26;;;;;;;8.07;2.83;;;23.70;99.50;;;;;;5031529;28;20527;-75
2022/09/05 08:30:01;;;;;;;13.50;3.15;;;23.40;99.70;;;;;;5051290;28;20032;-75
2022/09/05 08:32:45;;;;;;;12.30;2.65;;;23.80;99.70;;;;;;5052198;28;20039;-76
2022/09/05 08:35:24;;;;;;;14.63;2.85;;;24.00;99.20;;;;;;5052580;28;20031;-74
2022/09/05 08:37:51;;;;;;;12.52;2.40;;;24.30;98.90;;;;;;5051029;28;20029;-74
2022/09/05 08:40:43;;;;;;;12.55;2.67;;;24.30;97.90;;;;;;5052312;28;20041;-74
2022/09/05 08:43:24;;;;;;;8.57;2.58;;;24.70;97.90;;;;;;5051046;28;20021;-74
2022/09/05 08:46:16;;;;;;;13.90;2.90;;;24.90;97.70;;;;;;5041688;28;20021;-77
2022/09/05 08:48:42;;;;;;;18.55;2.40;;;25.30;97.90;;;;;;5042925;28;20100;-77
2022/09/05 08:51:32;;;;;;;7.32;2.17;;;25.60;96.70;;;;;;5053427;28;20032;-77
2022/09/05 08:54:18;;;;;;;9.40;2.40;;;25.50;96.00;;;;;;5056255;28;20390;-77
2022/09/05 08:56:49;;;;;;;7.45;2.03;;;25.70;95.70;;;;;;5055150;28;20072;-77
2022/09/05 08:59:23;;;;;;;6.53;2.00;;;25.60;95.90;;;;;;5068386;28;20057;-78
2022/09/05 09:01:58;;;;;;;7.78;2.00;;;25.90;95.10;;;;;;5070263;28;20037;-77
2022/09/05 09:04:27;;;;;;;3.15;1.45;;;26.30;94.50;;;;;;5053192;28;20091;-77
2022/09/05 09:07:46;;;;;;;6.60;1.52;;;26.60;94.30;;;;;;5052584;28;20677;-77
2022/09/05 09:10:44;;;;;;;6.43;1.63;;;26.40;93.50;;;;;;4958588;28;20049;-77
2022/09/05 09:13:35;;;;;;;15.18;2.38;;;26.70;93.70;;;;;;4971269;28;20442;-77
2022/09/05 09:16:20;;;;;;;;;;;26.70;93.40;;;;;;5039020;28;20047;-77
2022/09/05 09:18:48;;;;;;;4.53;1.60;;;26.40;94.00;;;;;;5054984;28;20353;-77
2022/09/05 09:21:31;;;;;;;6.13;1.85;;;26.70;92.70;;;;;;5054837;28;20025;-78
2022/09/05 09:24:10;;;;;;;11.68;1.80;;;26.80;93.40;;;;;;5055086;28;20021;-78
2022/09/05 09:26:56;;;;;;;10.55;1.83;;;26.90;93.30;;;;;;5050896;28;20834;-78
2022/09/05 09:29:24;;;;;;;5.05;1.75;;;27.20;93.00;;;;;;5056277;28;20035;-77
2022/09/05 09:32:05;;;;;;;5.10;1.98;;;27.10;92.90;;;;;;5053992;28;20074;-78
2022/09/05 09:34:37;;;;;;;8.00;1.85;;;27.20;92.90;;;;;;5054168;28;20047;-78
2022/09/05 09:37:09;;;;;;;8.20;2.38;;;27.10;92.90;;;;;;5055917;28;20025;-77
2022/09/05 09:39:44;;;;;;;5.68;1.92;;;27.20;92.90;;;;;;5054454;28;20037;-78
2022/09/05 09:42:44;;;;;;;9.30;2.25;;;27.10;92.50;;;;;;5070263;28;20389;-77
2022/09/05 09:45:21;;;;;;;7.53;2.17;;;27.20;92.50;;;;;;5052527;28;20071;-77
2022/09/05 09:47:59;;;;;;;9.77;1.92;;;27.80;92.30;;;;;;5054396;28;20031;-77
2022/09/05 09:50:31;;;;;;;6.35;1.80;;;27.90;91.90;;;;;;5041722;28;20115;-77
2022/09/05 09:53:14;;;;;;;8.55;1.95;;;27.90;91.90;;;;;;5054089;28;20029;-78
2022/09/05 09:56:04;;;;;;;7.88;1.80;;;28.40;91.50;;;;;;5038127;28;20028;-77
2022/09/05 09:58:46;;;;;;;5.90;1.65;;;28.00;91.40;;;;;;5052197;28;20029;-80
2022/09/05 10:01:37;;;;;;;6.30;1.63;;;28.30;91.60;;;;;;5056636;28;20033;-78
2022/09/05 10:04:10;;;;;;;11.35;2.00;;;28.70;91.50;;;;;;5047793;28;20029;-77
2022/09/05 10:06:58;;;;;;;7.13;1.60;;;28.70;91.00;;;;;;5053576;28;20029;-77
2022/09/05 10:09:59;;;;;;;6.07;1.85;;;28.60;90.90;;;;;;5054014;28;20056;-77
2022/09/05 10:12:30;;;;;;;3.70;1.60;;;29.00;90.70;;;;;;5054072;28;20045;-77
2022/09/05 10:15:17;;;;;;;8.43;1.40;;;29.50;90.30;;;;;;5053817;28;20036;-76
2022/09/05 10:18:17;;;;;;;4.35;1.60;;;29.60;89.60;;;;;;5051909;28;20347;-76
2022/09/05 10:20:55;;;;;;;8.02;1.85;;;30.10;88.40;;;;;;5053620;28;20504;-77
2022/09/05 10:23:40;;;;;;;7.72;1.88;;;29.10;88.50;;;;;;5053855;28;20044;-77
2022/09/05 10:26:28;;;;;;;4.60;1.45;;;29.70;89.10;;;;;;5053163;28;20032;-77
2022/09/05 10:29:15;;;;;;;7.43;1.77;;;29.60;88.20;;;;;;5053123;28;20036;-77
2022/09/05 10:31:55;;;;;;;4.28;1.67;;;29.50;87.90;;;;;;5052052;28;20021;-78
2022/09/05 10:34:28;;;;;;;7.18;1.58;;;29.70;88.20;;;;;;5053675;28;20041;-78
2022/09/05 10:37:08;;;;;;;6.43;1.90;;;29.90;88.30;;;;;;5044474;28;20470;-78
2022/09/05 10:39:45;;;;;;;5.72;1.35;;;29.50;87.70;;;;;;5053258;28;20442;-78
2022/09/05 10:42:17;;;;;;;13.48;1.92;;;29.40;88.30;;;;;;5053172;28;20055;-77
2022/09/05 10:44:56;;;;;;;5.28;1.98;;;29.50;88.40;;;;;;5053097;28;20485;-77
2022/09/05 10:47:47;;;;;;;4.00;1.38;;;30.10;87.90;;;;;;5042234;28;20558;-78
2022/09/05 10:50:25;;;;;;;4.55;1.70;;;29.80;86.60;;;;;;5052962;28;20039;-77
2022/09/05 10:53:03;;;;;;;5.40;1.85;;;30.20;86.90;;;;;;5051047;28;20037;-77
2022/09/05 10:55:37;;;;;;;3.95;1.60;;;30.30;86.40;;;;;;5052847;28;20419;-78
2022/09/05 10:58:42;;;;;;;3.92;1.60;;;29.90;87.00;;;;;;5068592;28;20044;-77
2022/09/05 11:01:22;;;;;;;9.63;1.80;;;29.80;86.80;;;;;;5044599;28;20406;-77
2022/09/05 11:03:54;;;;;;;7.20;1.80;;;29.70;86.50;;;;;;5053104;28;20416;-78
2022/09/05 11:06:41;;;;;;;5.55;1.70;;;30.20;87.10;;;;;;5047778;28;20025;-77
2022/09/05 11:09:28;;;;;;;15.98;2.30;;;29.70;86.20;;;;;;5066013;28;20386;-78
2022/09/05 11:12:15;;;;;;;7.50;1.42;;;29.70;87.00;;;;;;5051199;28;20017;-78
2022/09/05 11:14:50;;;;;;;5.25;1.80;;;30.00;85.90;;;;;;5050173;28;20040;-78
2022/09/05 11:17:28;;;;;;;9.30;1.83;;;29.80;86.40;;;;;;5047180;28;20078;-79
2022/09/05 11:20:17;;;;;;;2.03;1.50;;;29.50;86.60;;;;;;5050117;28;20035;-78
2022/09/05 11:22:45;;;;;;;6.13;2.10;;;29.10;87.00;;;;;;5021335;28;20136;-79
2022/09/05 11:25:20;;;;;;;2.97;1.48;;;29.50;86.40;;;;;;5052068;28;20098;-78
2022/09/05 11:27:52;;;;;;;10.00;1.80;;;29.90;86.90;;;;;;5065714;28;20033;-78
2022/09/05 11:30:20;;;;;;;5.00;1.60;;;30.30;85.40;;;;;;5050729;28;20461;-78
2022/09/05 11:32:54;;;;;;;2.15;1.50;;;30.30;85.20;;;;;;5052420;28;20025;-78
2022/09/05 11:35:53;;;;;;;7.32;1.55;;;29.70;85.80;;;;;;5047860;28;20035;-79
2022/09/05 11:38:53;;;;;;;6.85;1.88;;;30.10;86.00;;;;;;5048562;28;20017;-78
2022/09/05 11:41:42;;;;;;;7.10;1.88;;;31.50;85.20;;;;;;5061450;28;20032;-79
2022/09/05 11:44:46;;;;;;;6.07;1.85;;;31.30;84.70;;;;;;5050446;28;20128;-78
2022/09/05 11:47:32;;;;;;;5.78;1.58;;;31.90;82.90;;;;;;5050078;28;20036;-79
2022/09/05 11:50:06;;;;;;;4.10;1.70;;;32.20;81.50;;;;;;5050565;28;20025;-78
2022/09/05 11:52:39;;;;;;;3.38;1.48;;;31.50;82.10;;;;;;5050324;28;20504;-78
2022/09/05 11:55:36;;;;;;;3.55;1.75;;;31.70;82.80;;;;;;5050506;28;20159;-79
2022/09/05 11:58:40;;;;;;;3.03;1.42;;;31.70;82.00;;;;;;5046549;28;20052;-79
2022/09/05 12:01:32;;;;;;;6.63;1.73;;;31.20;83.00;;;;;;5051421;28;20068;-79
2022/09/05 12:04:25;;;;;;;8.32;2.28;;;31.60;82.70;;;;;;5049865;28;20488;-79
2022/09/05 12:07:09;;;;;;;5.28;1.63;;;32.90;81.40;;;;;;5051403;28;20397;-79
2022/09/05 12:10:00;;;;;;;11.20;1.67;;;33.50;80.50;;;;;;5052373;28;20067;-79
2022/09/05 12:13:07;;;;;;;6.90;1.93;;;34.60;79.00;;;;;;5052773;28;20377;-79
2022/09/05 12:15:33;;;;;;;4.68;1.50;;;34.00;77.90;;;;;;5051429;28;20029;-79
2022/09/05 12:18:27;;;;;;;9.00;1.90;;;33.70;78.30;;;;;;5052812;28;20461;-79
2022/09/05 12:21:04;;;;;;;5.20;1.48;;;34.20;77.50;;;;;;5052547;28;20044;-79
2022/09/05 12:23:34;;;;;;;5.65;1.65;;;34.90;76.80;;;;;;5052456;28;20021;-79
2022/09/05 12:26:18;;;;;;;7.30;1.80;;;36.80;75.50;;;;;;5050963;28;20479;-79
2022/09/05 12:28:51;;;;;;;5.57;1.92;;;36.50;73.90;;;;;;5052484;28;20044;-79
2022/09/05 12:31:34;;;;;;;3.67;1.90;;;35.20;74.40;;;;;;5051288;28;20063;-79
2022/09/05 12:34:08;;;;;;;9.32;1.50;;;34.30;75.40;;;;;;5052552;28;20056;-79
2022/09/05 12:36:49;;;;;;;6.75;1.58;;;33.70;75.90;;;;;;5051106;28;20056;-79
2022/09/05 12:39:23;;;;;;;8.70;2.00;;;34.80;74.70;;;;;;5052091;28;20033;-79
2022/09/05 12:42:01;;;;;;;4.68;1.48;;;35.00;74.50;;;;;;5038578;28;20736;-79
2022/09/05 12:44:35;;;;;;;7.78;2.03;;;35.00;73.60;;;;;;5052271;28;20021;-79
2022/09/05 12:47:09;;;;;;;6.40;1.60;;;33.60;73.70;;;;;;5054905;28;20025;-79
2022/09/05 12:49:45;;;;;;;4.82;1.40;;;34.20;74.50;;;;;;5052161;28;20128;-79
2022/09/05 12:52:30;;;;;;;7.40;1.25;;;34.50;73.40;;;;;;5039705;28;20494;-79
2022/09/05 12:55:00;;;;;;;4.13;1.40;;;34.90;72.70;;;;;;5067384;28;20443;-80
2022/09/05 12:57:40;;;;;;;5.72;1.48;;;33.70;73.50;;;;;;5051850;28;20045;-79
2022/09/05 13:00:20;;;;;;;2.42;1.52;;;33.90;73.20;;;;;;5052027;28;20037;-79
2022/09/05 13:02:52;;;;;;;7.25;1.65;;;33.00;73.30;;;;;;5052152;28;20036;-79
2022/09/05 13:05:25;;;;;;;5.18;1.60;;;32.30;73.50;;;;;;5036657;28;20025;-79
2022/09/05 13:07:57;;;;;;;3.50;1.40;;;32.60;74.00;;;;;;5060173;28;20059;-79
2022/09/05 13:10:34;;;;;;;7.50;1.35;;;33.50;73.30;;;;;;5063883;28;20036;-80
2022/09/05 13:13:13;;;;;;;5.38;1.80;;;33.80;72.80;;;;;;5069501;28;20481;-79
2022/09/05 13:15:47;;;;;;;4.65;1.30;;;33.10;73.40;;;;;;5051379;28;20025;-79
2022/09/05 13:18:17;;;;;;;6.05;1.17;;;32.60;73.30;;;;;;5042181;28;20040;-79
2022/09/05 13:20:50;;;;;;;7.53;1.50;;;33.90;72.20;;;;;;5051117;28;20175;-79
2022/09/05 13:23:24;;;;;;;5.53;1.55;;;35.00;71.60;;;;;;5050918;28;20082;-79
2022/09/05 13:25:59;;;;;;;6.82;1.60;;;35.40;70.30;;;;;;5056048;28;20078;-79
2022/09/05 13:28:34;;;;;;;9.88;1.80;;;34.30;71.30;;;;;;5051106;28;20025;-79
2022/09/05 13:31:06;;;;;;;4.82;1.30;;;34.90;71.40;;;;;;5051154;28;20029;-78
2022/09/05 13:33:46;;;;;;;3.17;1.10;;;34.90;69.90;;;;;;5050844;28;20029;-78
2022/09/05 13:36:20;;;;;;;7.22;1.35;;;34.10;70.30;;;;;;5049637;28;20036;-78
2022/09/05 13:39:01;;;;;;;9.90;1.65;;;34.60;70.20;;;;;;5053994;28;20064;-80
2022/09/05 13:41:35;;;;;;;2.80;1.42;;;34.90;69.80;;;;;;5051388;28;20066;-79
2022/09/05 13:44:09;;;;;;;6.40;1.30;;;35.20;69.90;;;;;;5079230;28;20427;-78
2022/09/05 13:46:58;;;;;;;3.80;1.55;;;35.70;70.60;;;;;;5054542;28;20055;-76
2022/09/05 13:49:31;;;;;;;5.30;1.20;;;34.80;71.00;;;;;;5053453;28;20083;-77
2022/09/05 13:52:30;;;;;;;7.00;1.35;;;34.60;71.80;;;;;;5053380;28;20021;-79
2022/09/05 13:55:07;;;;;;;2.60;1.52;;;35.00;70.40;;;;;;5054910;28;20040;-79
2022/09/05 13:57:38;;;;;;;6.55;1.35;;;35.00;71.20;;;;;;5053819;28;20094;-79